createdAt,value
2022-12-11T00:00:27.686Z,20.73
2022-12-11T00:02:54.886Z,21.15
2022-12-11T00:05:21.860Z,20.63
2022-12-11T00:07:48.777Z,21.15
2022-12-11T00:10:15.877Z,20.65
2022-12-11T00:12:42.726Z,20.20
2022-12-11T00:15:10.537Z,19.60
2022-12-11T00:17:38.440Z,19.38
2022-12-11T00:20:06.202Z,20.65
2022-12-11T00:22:33.186Z,20.77
2022-12-11T00:25:00.133Z,20.45
2022-12-11T00:27:27.261Z,19.60
2022-12-11T00:29:54.154Z,21.23
2022-12-11T00:32:21.054Z,20.00
2022-12-11T00:34:47.856Z,21.33
2022-12-11T00:37:14.804Z,22.23
2022-12-11T00:39:41.830Z,22.27
2022-12-11T00:42:09.436Z,19.83
2022-12-11T00:44:36.596Z,22.15
2022-12-11T00:47:04.220Z,22.40
2022-12-11T00:49:31.328Z,19.83
2022-12-11T00:51:58.370Z,20.15
2022-12-11T00:54:25.299Z,21.75
2022-12-11T00:56:52.482Z,20.33
2022-12-11T00:59:20.171Z,20.98
2022-12-11T01:01:47.108Z,19.15
2022-12-11T01:04:14.077Z,19.88
2022-12-11T01:06:40.978Z,19.67
2022-12-11T01:09:26.259Z,19.90
2022-12-11T01:11:53.195Z,20.77
2022-12-11T01:14:20.212Z,19.88
2022-12-11T01:16:47.179Z,21.50
2022-12-11T01:19:14.191Z,21.25
2022-12-11T01:21:41.191Z,21.02
2022-12-11T01:24:08.194Z,19.95
2022-12-11T01:26:35.278Z,21.50
2022-12-11T01:29:02.455Z,20.00
2022-12-11T01:31:30.081Z,20.92
2022-12-11T01:33:57.034Z,20.85
2022-12-11T01:36:24.752Z,21.08
2022-12-11T01:38:51.807Z,18.70
2022-12-11T01:41:19.057Z,21.05
2022-12-11T01:44:28.328Z,20.10
2022-12-11T01:46:55.244Z,18.35
2022-12-11T01:49:26.731Z,19.20
2022-12-11T01:52:06.139Z,19.63
2022-12-11T01:54:34.730Z,19.70
2022-12-11T01:57:07.369Z,19.15
2022-12-11T01:59:40.220Z,19.85
2022-12-11T02:02:26.130Z,19.80
2022-12-11T02:04:53.087Z,17.90
2022-12-11T02:07:20.063Z,17.33
2022-12-11T02:09:48.529Z,17.65
2022-12-11T02:12:46.212Z,17.38
2022-12-11T02:15:37.886Z,17.90
2022-12-11T02:18:21.237Z,17.20
2022-12-11T02:21:17.121Z,17.05
2022-12-11T02:24:57.770Z,19.17
2022-12-11T02:27:38.927Z,17.05
2022-12-11T02:30:14.423Z,17.08
2022-12-11T02:33:05.651Z,18.75
2022-12-11T02:35:42.124Z,16.95
2022-12-11T02:38:27.125Z,17.00
2022-12-11T02:40:57.859Z,16.92
2022-12-11T02:43:27.524Z,17.65
2022-12-11T02:45:56.285Z,17.23
2022-12-11T02:48:25.019Z,16.92
2022-12-11T02:50:58.055Z,16.27
2022-12-11T02:53:29.761Z,16.52
2022-12-11T02:56:16.803Z,15.88
2022-12-11T02:58:58.377Z,15.98
2022-12-11T03:01:27.072Z,15.13
2022-12-11T03:03:55.876Z,15.55
2022-12-11T03:06:32.006Z,15.65
2022-12-11T03:08:58.973Z,15.35
2022-12-11T03:11:25.957Z,16.33
2022-12-11T03:13:54.093Z,15.00
2022-12-11T03:16:39.576Z,15.52
2022-12-11T03:19:36.127Z,15.20
2022-12-11T03:22:22.913Z,17.85
2022-12-11T03:25:02.761Z,16.15
2022-12-11T03:27:50.573Z,18.10
2022-12-11T03:30:22.398Z,18.85
2022-12-11T03:32:56.871Z,16.98
2022-12-11T03:35:44.087Z,17.33
2022-12-11T03:38:24.784Z,18.40
2022-12-11T03:40:58.207Z,18.08
2022-12-11T03:43:27.377Z,17.85
2022-12-11T03:45:55.776Z,17.55
2022-12-11T03:48:25.344Z,18.45
2022-12-11T03:50:52.982Z,17.30
2022-12-11T03:53:21.885Z,16.25
2022-12-11T03:55:51.486Z,17.05
2022-12-11T03:58:18.370Z,17.23
2022-12-11T04:00:45.282Z,16.92
2022-12-11T04:03:15.124Z,16.38
2022-12-11T04:05:46.403Z,17.23
2022-12-11T04:08:14.939Z,17.45
2022-12-11T04:10:42.397Z,16.85
2022-12-11T04:13:10.506Z,16.92
2022-12-11T04:15:39.655Z,14.70
2022-12-11T04:18:26.943Z,15.82
2022-12-11T04:21:14.450Z,16.23
2022-12-11T04:23:59.733Z,16.13
2022-12-11T04:26:27.018Z,16.67
2022-12-11T04:28:53.895Z,16.02
2022-12-11T04:31:23.048Z,17.08
2022-12-11T04:33:50.491Z,16.35
2022-12-11T04:36:17.602Z,17.13
2022-12-11T04:38:44.521Z,16.17
2022-12-11T04:41:16.005Z,16.83
2022-12-11T04:43:45.222Z,18.58
2022-12-11T04:46:24.388Z,16.77
2022-12-11T04:48:57.436Z,15.68
2022-12-11T04:51:25.404Z,17.90
2022-12-11T04:53:53.017Z,16.80
2022-12-11T04:56:20.550Z,15.88
2022-12-11T04:58:48.273Z,15.45
2022-12-11T05:01:20.110Z,16.58
2022-12-11T05:03:47.514Z,16.38
2022-12-11T05:06:14.788Z,17.33
2022-12-11T05:08:43.217Z,17.08
2022-12-11T05:11:13.540Z,16.70
2022-12-11T05:13:41.095Z,16.38
2022-12-11T05:16:12.012Z,17.35
2022-12-11T05:18:39.347Z,16.15
2022-12-11T05:21:10.177Z,17.02
2022-12-11T05:23:38.355Z,17.27
2022-12-11T05:26:16.073Z,15.95
2022-12-11T05:28:43.995Z,15.90
2022-12-11T05:31:19.268Z,15.25
2022-12-11T05:33:47.829Z,15.48
2022-12-11T05:36:31.476Z,15.23
2022-12-11T05:39:00.987Z,14.75
2022-12-11T05:41:30.940Z,14.90
2022-12-11T05:43:58.169Z,14.27
2022-12-11T05:46:28.801Z,15.13
2022-12-11T05:49:01.907Z,16.25
2022-12-11T05:51:30.301Z,14.75
2022-12-11T05:53:59.091Z,13.98
2022-12-11T05:56:33.283Z,14.60
2022-12-11T05:59:02.711Z,14.45
2022-12-11T06:01:43.133Z,14.48
2022-12-11T06:04:12.270Z,14.48
2022-12-11T06:06:40.444Z,12.73
2022-12-11T06:09:08.194Z,13.50
2022-12-11T06:11:36.085Z,14.73
2022-12-11T06:14:04.015Z,13.38
2022-12-11T06:16:31.967Z,13.13
2022-12-11T06:18:59.271Z,14.68
2022-12-11T06:21:30.198Z,13.27
2022-12-11T06:24:01.083Z,13.35
2022-12-11T06:26:29.094Z,11.82
2022-12-11T06:28:56.124Z,12.90
2022-12-11T06:31:23.262Z,13.25
2022-12-11T06:33:50.221Z,12.70
2022-12-11T06:36:21.559Z,12.73
2022-12-11T06:38:48.666Z,13.98
2022-12-11T06:41:16.622Z,12.43
2022-12-11T06:43:44.027Z,12.70
2022-12-11T06:46:17.472Z,12.18
2022-12-11T06:48:44.739Z,12.75
2022-12-11T06:51:16.432Z,13.02
2022-12-11T06:53:44.251Z,12.05
2022-12-11T06:56:15.666Z,11.77
2022-12-11T06:58:44.260Z,13.23
2022-12-11T07:01:29.841Z,12.23
2022-12-11T07:03:59.404Z,11.63
2022-12-11T07:06:29.837Z,11.18
2022-12-11T07:08:57.161Z,11.93
2022-12-11T07:11:24.653Z,12.48
2022-12-11T07:13:51.687Z,11.55
2022-12-11T07:16:19.359Z,12.77
2022-12-11T07:18:51.346Z,12.18
2022-12-11T07:21:20.462Z,13.88
2022-12-11T07:23:48.923Z,12.18
2022-12-11T07:26:19.865Z,12.85
2022-12-11T07:28:47.420Z,12.00
2022-12-11T07:31:19.921Z,12.70
2022-12-11T07:33:47.266Z,14.30
2022-12-11T07:36:16.124Z,13.38
2022-12-11T07:38:43.041Z,12.45
2022-12-11T07:41:14.660Z,12.40
2022-12-11T07:43:42.568Z,11.55
2022-12-11T07:46:14.604Z,13.65
2022-12-11T07:48:43.891Z,13.70
2022-12-11T07:51:19.047Z,12.68
2022-12-11T07:53:49.337Z,13.48
2022-12-11T07:56:18.411Z,12.30
2022-12-11T07:58:46.460Z,13.57
2022-12-11T08:01:21.357Z,13.00
2022-12-11T08:03:50.714Z,12.13
2022-12-11T08:06:18.361Z,13.02
2022-12-11T08:08:45.473Z,11.15
2022-12-11T08:11:14.880Z,12.70
2022-12-11T08:13:43.172Z,13.32
2022-12-11T08:16:14.079Z,11.95
2022-12-11T08:18:43.168Z,14.00
2022-12-11T08:21:23.232Z,14.40
2022-12-11T08:23:52.346Z,13.98
2022-12-11T08:26:27.279Z,12.88
2022-12-11T08:28:54.778Z,13.40
2022-12-11T08:31:22.294Z,12.98
2022-12-11T08:33:50.348Z,11.98
2022-12-11T08:36:21.077Z,12.23
2022-12-11T08:38:50.385Z,14.10
2022-12-11T08:41:27.430Z,14.98
2022-12-11T08:43:56.064Z,14.07
2022-12-11T08:46:26.870Z,11.98
2022-12-11T08:48:55.558Z,12.32
2022-12-11T08:51:26.081Z,10.95
2022-12-11T08:53:57.601Z,11.52
2022-12-11T08:56:25.676Z,11.30
2022-12-11T08:58:53.313Z,11.32
2022-12-11T09:01:26.858Z,10.85
2022-12-11T09:03:56.535Z,10.40
2022-12-11T09:06:26.544Z,10.88
2022-12-11T09:08:54.290Z,10.43
2022-12-11T09:11:28.931Z,11.63
2022-12-11T09:13:57.073Z,11.80
2022-12-11T09:16:27.306Z,12.10
2022-12-11T09:18:57.381Z,11.30
2022-12-11T09:21:28.775Z,11.43
2022-12-11T09:24:00.145Z,11.38
2022-12-11T09:26:30.016Z,11.52
2022-12-11T09:28:57.998Z,10.90
2022-12-11T09:31:31.749Z,11.90
2022-12-11T09:34:05.674Z,12.23
2022-12-11T09:36:33.246Z,10.85
2022-12-11T09:39:02.625Z,10.57
2022-12-11T09:41:44.507Z,10.30
2022-12-11T09:44:11.332Z,10.80
2022-12-11T09:46:40.707Z,11.13
2022-12-11T09:49:32.002Z,10.88
2022-12-11T09:52:35.902Z,10.60
2022-12-11T09:55:29.698Z,11.25
2022-12-11T09:58:24.941Z,11.38
2022-12-11T10:01:20.724Z,11.53
2022-12-11T10:04:05.868Z,9.40
2022-12-11T10:06:50.509Z,9.98
2022-12-11T10:09:34.601Z,10.50
2022-12-11T10:12:19.458Z,11.48
2022-12-11T10:15:19.744Z,11.20
2022-12-11T10:17:47.428Z,10.65
2022-12-11T10:20:28.853Z,10.90
2022-12-11T10:22:57.326Z,10.20
2022-12-11T10:25:35.299Z,10.00
2022-12-11T10:28:18.161Z,9.48
2022-12-11T10:31:02.527Z,9.88
2022-12-11T10:33:47.955Z,10.40
2022-12-11T10:36:27.708Z,9.90
2022-12-11T10:38:54.870Z,10.25
2022-12-11T10:41:31.829Z,11.38
2022-12-11T10:44:00.716Z,10.25
2022-12-11T10:46:29.927Z,11.40
2022-12-11T10:49:01.233Z,11.18
2022-12-11T10:51:31.108Z,10.02
2022-12-11T10:54:17.225Z,10.57
2022-12-11T10:56:48.719Z,9.40
2022-12-11T10:59:49.803Z,10.52
2022-12-11T11:02:41.547Z,9.90
2022-12-11T11:05:17.701Z,9.32
2022-12-11T11:07:44.701Z,10.05
2022-12-11T11:10:12.049Z,9.98
2022-12-11T11:12:56.496Z,9.40
2022-12-11T11:15:29.420Z,10.70
2022-12-11T11:18:04.348Z,11.02
2022-12-11T11:20:34.285Z,11.13
2022-12-11T11:23:11.655Z,11.10
2022-12-11T11:25:40.424Z,10.98
2022-12-11T11:28:22.326Z,10.77
2022-12-11T11:31:31.355Z,10.57
2022-12-11T11:34:05.373Z,10.60
2022-12-11T11:36:36.706Z,9.70
2022-12-11T11:39:27.761Z,11.45
2022-12-11T11:41:57.469Z,10.57
2022-12-11T11:45:05.484Z,11.10
2022-12-11T11:47:43.261Z,11.60
2022-12-11T11:50:22.130Z,11.70
2022-12-11T11:53:19.254Z,11.38
2022-12-11T11:56:04.300Z,10.65
2022-12-11T11:59:05.447Z,12.30
2022-12-11T12:01:33.118Z,11.88
2022-12-11T12:04:03.878Z,11.95
2022-12-11T12:06:56.838Z,13.23
2022-12-11T12:09:48.558Z,11.65
2022-12-11T12:15:26.964Z,12.63
2022-12-11T12:18:02.861Z,12.68
2022-12-11T12:21:08.776Z,12.68
2022-12-11T12:24:14.260Z,9.95
2022-12-11T12:26:54.044Z,11.80
2022-12-11T12:30:01.202Z,12.52
2022-12-11T12:32:53.389Z,12.82
2022-12-11T12:35:27.279Z,11.00
2022-12-11T12:38:25.522Z,11.25
2022-12-11T12:41:30.913Z,11.48
2022-12-11T12:44:19.114Z,10.53
2022-12-11T12:47:04.474Z,9.75
2022-12-11T12:49:49.270Z,9.75
2022-12-11T12:52:34.813Z,10.35
2022-12-11T12:55:24.501Z,9.45
2022-12-11T12:58:00.873Z,10.63
2022-12-11T13:00:39.043Z,9.98
2022-12-11T13:03:25.130Z,10.25
2022-12-11T13:06:10.998Z,10.18
2022-12-11T13:08:51.802Z,10.57
2022-12-11T13:11:30.580Z,11.43
2022-12-11T13:14:28.335Z,11.18
2022-12-11T13:17:28.670Z,12.18
2022-12-11T13:20:21.976Z,11.85
2022-12-11T13:23:07.887Z,11.80
2022-12-11T13:25:56.413Z,11.35
2022-12-11T13:28:23.975Z,11.35
2022-12-11T13:31:16.863Z,12.18
2022-12-11T13:33:53.494Z,11.88
2022-12-11T13:36:25.065Z,10.63
2022-12-11T13:39:19.048Z,10.85
2022-12-11T13:41:56.662Z,10.68
2022-12-11T13:44:31.038Z,11.25
2022-12-11T13:47:03.791Z,10.55
2022-12-11T13:49:37.445Z,10.88
2022-12-11T13:52:05.944Z,12.02
2022-12-11T13:54:38.998Z,10.98
2022-12-11T13:57:08.778Z,10.93
2022-12-11T13:59:47.000Z,12.27
2022-12-11T14:02:23.841Z,12.30
2022-12-11T14:04:57.778Z,12.13
2022-12-11T14:07:33.375Z,12.07
2022-12-11T14:10:30.285Z,13.23
2022-12-11T14:13:06.955Z,13.20
2022-12-11T14:15:36.686Z,12.77
2022-12-11T14:18:05.945Z,13.57
2022-12-11T14:20:34.706Z,14.45
2022-12-11T14:23:18.581Z,13.05
2022-12-11T14:25:57.086Z,13.88
2022-12-11T14:28:27.771Z,14.15
2022-12-11T14:31:00.747Z,14.50
2022-12-11T14:33:41.546Z,14.68
2022-12-11T14:36:09.883Z,15.38
2022-12-11T14:38:49.325Z,13.88
2022-12-11T14:41:53.120Z,14.48
2022-12-11T14:44:25.590Z,13.52
2022-12-11T14:47:03.775Z,12.98
2022-12-11T14:49:58.718Z,12.73
2022-12-11T14:52:43.370Z,13.65
2022-12-11T14:55:26.642Z,13.38
2022-12-11T14:58:04.130Z,13.67
2022-12-11T15:00:37.059Z,12.15
2022-12-11T15:03:30.469Z,12.88
2022-12-11T15:05:58.360Z,12.43
2022-12-11T15:08:36.912Z,11.32
2022-12-11T15:11:12.048Z,12.43
2022-12-11T15:14:09.879Z,12.27
2022-12-11T15:16:41.724Z,11.80
2022-12-11T15:19:23.394Z,12.50
2022-12-11T15:21:51.349Z,12.57
2022-12-11T15:24:41.049Z,12.30
2022-12-11T15:27:26.270Z,11.95
2022-12-11T15:29:53.643Z,11.30
2022-12-11T15:32:21.773Z,13.05
2022-12-11T15:34:59.428Z,12.52
2022-12-11T15:37:28.507Z,12.85
2022-12-11T15:39:59.141Z,13.60
2022-12-11T15:42:41.999Z,11.82
2022-12-11T15:45:20.389Z,12.15
2022-12-11T15:47:48.906Z,12.45
2022-12-11T15:50:24.116Z,13.10
2022-12-11T15:52:53.668Z,13.77
2022-12-11T15:55:22.983Z,13.63
2022-12-11T15:58:05.901Z,13.48
2022-12-11T16:00:32.963Z,14.27
2022-12-11T16:03:00.004Z,15.90
2022-12-11T16:05:27.665Z,14.80
2022-12-11T16:07:59.870Z,16.08
2022-12-11T16:10:27.173Z,15.52
2022-12-11T16:12:59.239Z,16.17
2022-12-11T16:15:27.363Z,15.32
2022-12-11T16:18:07.944Z,16.30
2022-12-11T16:20:37.961Z,16.05
2022-12-11T16:23:05.381Z,15.63
2022-12-11T16:25:33.359Z,16.90
2022-12-11T16:28:01.601Z,16.02
2022-12-11T16:30:29.744Z,15.93
2022-12-11T16:32:56.840Z,15.43
2022-12-11T16:35:23.754Z,15.10
2022-12-11T16:37:53.273Z,15.38
2022-12-11T16:40:21.743Z,16.02
2022-12-11T16:42:49.431Z,17.02
2022-12-11T16:45:23.238Z,15.25
2022-12-11T16:47:50.258Z,16.70
2022-12-11T16:50:18.441Z,14.00
2022-12-11T16:52:45.977Z,16.65
2022-12-11T16:55:13.947Z,15.77
2022-12-11T16:57:41.752Z,16.88
2022-12-11T17:00:14.207Z,14.93
2022-12-11T17:02:41.675Z,16.85
2022-12-11T17:05:09.048Z,15.05
2022-12-11T17:07:36.154Z,14.45
2022-12-11T17:10:04.043Z,13.98
2022-12-11T17:12:31.201Z,14.90
2022-12-11T17:14:58.268Z,15.23
2022-12-11T17:17:25.745Z,14.02
2022-12-11T17:19:52.870Z,13.80
2022-12-11T17:22:19.813Z,14.65
2022-12-11T17:24:46.906Z,15.68
2022-12-11T17:27:14.192Z,14.93
2022-12-11T17:29:41.218Z,15.38
2022-12-11T17:32:11.573Z,15.55
2022-12-11T17:34:38.878Z,15.40
2022-12-11T17:37:06.436Z,15.98
2022-12-11T17:39:33.831Z,16.48
2022-12-11T17:42:01.153Z,14.75
2022-12-11T17:44:30.543Z,15.43
2022-12-11T17:47:04.702Z,15.45
2022-12-11T17:49:34.613Z,15.38
2022-12-11T17:52:01.653Z,14.00
2022-12-11T17:54:28.678Z,14.80
2022-12-11T17:56:55.733Z,15.40
2022-12-11T17:59:22.807Z,15.57
2022-12-11T18:01:50.066Z,14.13
2022-12-11T18:04:17.102Z,15.30
2022-12-11T18:06:44.003Z,15.30
2022-12-11T18:09:11.308Z,16.15
2022-12-11T18:11:38.207Z,13.73
2022-12-11T18:14:05.390Z,14.82
2022-12-11T18:16:38.028Z,15.05
2022-12-11T18:19:06.144Z,14.77
2022-12-11T18:21:40.375Z,14.80
2022-12-11T18:24:09.207Z,16.60
2022-12-11T18:26:37.550Z,14.35
2022-12-11T18:29:05.349Z,13.63
2022-12-11T18:31:34.482Z,18.38
2022-12-11T18:34:06.262Z,16.02
2022-12-11T18:36:35.172Z,16.85
2022-12-11T18:39:03.279Z,16.85
2022-12-11T18:41:30.557Z,14.65
2022-12-11T18:44:01.999Z,15.90
2022-12-11T18:46:32.588Z,15.90
2022-12-11T18:48:59.804Z,16.00
2022-12-11T18:51:26.890Z,15.20
2022-12-11T18:53:54.059Z,14.77
2022-12-11T18:56:22.848Z,17.02
2022-12-11T18:58:51.127Z,16.42
2022-12-11T19:01:23.144Z,16.58
2022-12-11T19:03:51.547Z,16.25
2022-12-11T19:06:24.544Z,17.50
2022-12-11T19:08:52.592Z,16.52
2022-12-11T19:11:24.687Z,18.92
2022-12-11T19:13:53.928Z,17.05
2022-12-11T19:16:33.668Z,17.48
2022-12-11T19:19:05.824Z,16.40
2022-12-11T19:21:35.577Z,15.85
2022-12-11T19:24:02.844Z,15.43
2022-12-11T19:26:31.657Z,17.42
2022-12-11T19:29:00.383Z,16.23
2022-12-11T19:31:31.628Z,17.60
2022-12-11T19:34:00.149Z,18.05
2022-12-11T19:36:30.762Z,17.75
2022-12-11T19:39:01.925Z,17.55
2022-12-11T19:41:31.009Z,17.50
2022-12-11T19:43:59.701Z,18.17
2022-12-11T19:46:29.021Z,18.33
2022-12-11T19:48:59.193Z,18.70
2022-12-11T19:51:34.849Z,17.88
2022-12-11T19:54:03.261Z,16.55
2022-12-11T19:56:31.791Z,17.00
2022-12-11T19:59:00.829Z,18.45
2022-12-11T20:01:31.908Z,18.65
2022-12-11T20:04:04.115Z,16.73
2022-12-11T20:06:37.375Z,17.98
2022-12-11T20:09:07.758Z,18.23
2022-12-11T20:11:35.029Z,16.80
2022-12-11T20:14:04.006Z,16.05
2022-12-11T20:17:01.599Z,17.00
2022-12-11T20:19:18.914Z,16.77
2022-12-11T20:21:46.171Z,16.85
2022-12-11T20:24:13.506Z,17.92
2022-12-11T20:26:41.505Z,16.80
2022-12-11T20:29:09.050Z,17.10
2022-12-11T20:31:37.402Z,17.75
2022-12-11T20:34:05.843Z,15.85
2022-12-11T20:36:34.154Z,17.67
2022-12-11T20:39:01.568Z,17.65
2022-12-11T20:41:29.484Z,17.30
2022-12-11T20:43:57.100Z,16.98
2022-12-11T20:46:27.395Z,17.33
2022-12-11T20:48:58.822Z,16.58
2022-12-11T20:51:26.778Z,17.08
2022-12-11T20:53:59.234Z,17.10
2022-12-11T20:56:30.515Z,18.67
2022-12-11T20:58:59.850Z,16.50
2022-12-11T21:01:31.196Z,17.20
2022-12-11T21:03:59.834Z,18.80
2022-12-11T21:06:38.778Z,17.98
2022-12-11T21:09:19.875Z,16.55
2022-12-11T21:11:47.158Z,18.50
2022-12-11T21:14:16.211Z,16.33
2022-12-11T21:16:43.829Z,17.65
2022-12-11T21:19:20.116Z,18.60
2022-12-11T21:21:47.810Z,16.95
2022-12-11T21:24:26.473Z,17.08
2022-12-11T21:26:58.230Z,18.13
2022-12-11T21:29:29.352Z,18.77
2022-12-11T21:31:57.230Z,19.17
2022-12-11T21:34:25.765Z,17.10
2022-12-11T21:36:56.660Z,17.85
2022-12-11T21:39:25.596Z,19.13
2022-12-11T21:41:53.140Z,17.08
2022-12-11T21:47:06.981Z,18.80
2022-12-11T21:49:33.801Z,19.42
2022-12-11T21:52:00.730Z,19.00
2022-12-11T21:54:27.741Z,19.13
2022-12-11T21:56:54.617Z,19.52
2022-12-11T21:59:21.637Z,19.42
2022-12-11T22:01:48.588Z,19.17
2022-12-11T22:04:17.462Z,20.63
2022-12-11T22:06:47.105Z,19.83
2022-12-11T22:09:16.257Z,16.30
2022-12-11T22:11:45.702Z,19.67
2022-12-11T22:14:15.962Z,19.00
2022-12-11T22:16:44.298Z,17.80
2022-12-11T22:19:11.998Z,16.90
2022-12-11T22:21:39.458Z,18.58
2022-12-11T22:24:07.275Z,19.02
2022-12-11T22:26:34.160Z,17.48
2022-12-11T22:29:01.030Z,16.58
2022-12-11T22:31:28.140Z,18.75
2022-12-11T22:33:55.998Z,18.15
2022-12-11T22:36:26.474Z,18.42
2022-12-11T22:38:53.815Z,19.55
2022-12-11T22:41:28.452Z,18.13
2022-12-11T22:43:56.883Z,17.95
2022-12-11T22:46:28.005Z,17.63
2022-12-11T22:48:55.042Z,17.10
2022-12-11T22:51:22.798Z,17.73
2022-12-11T22:53:49.896Z,19.10
2022-12-11T22:56:17.199Z,18.25
2022-12-11T22:58:44.356Z,17.92
2022-12-11T23:01:16.250Z,18.08
2022-12-11T23:03:43.669Z,19.33
2022-12-11T23:06:13.996Z,17.08
2022-12-11T23:08:42.296Z,18.60
2022-12-11T23:11:14.651Z,18.95
2022-12-11T23:13:42.036Z,20.45
2022-12-11T23:16:11.059Z,18.67
2022-12-11T23:18:39.389Z,19.65
2022-12-11T23:21:07.916Z,19.17
2022-12-11T23:23:35.152Z,20.70
2022-12-11T23:26:02.437Z,20.08
2022-12-11T23:28:29.373Z,20.77
2022-12-11T23:30:56.277Z,19.88
2022-12-11T23:33:23.731Z,19.80
2022-12-11T23:35:50.659Z,19.42
2022-12-11T23:38:18.032Z,18.98
2022-12-11T23:40:44.976Z,19.63
2022-12-11T23:43:12.008Z,18.10
2022-12-11T23:45:38.945Z,18.90
2022-12-11T23:48:05.894Z,17.50
2022-12-11T23:50:32.928Z,19.13
2022-12-11T23:53:00.449Z,20.73
2022-12-11T23:55:27.546Z,19.88
2022-12-11T23:57:55.672Z,18.13
